sensor_id;sensor_type;location;lat;lon;timestamp;pressure;altitude;pressure_sealevel;temperature;humidity
60059;BME280;45932;50.658;3.022;2022-08-19T00:01:27;100901.44;;;23.65;60.38
60059;BME280;45932;50.658;3.022;2022-08-19T00:03:54;100832.91;;;23.36;61.10
60059;BME280;45932;50.658;3.022;2022-08-19T00:06:20;100751.59;;;22.56;60.11
60059;BME280;45932;50.658;3.022;2022-08-19T00:08:45;100777.16;;;22.84;60.74
60059;BME280;45932;50.658;3.022;2022-08-19T00:11:11;100784.03;;;22.90;60.68
60059;BME280;45932;50.658;3.022;2022-08-19T00:13:37;100756.69;;;22.80;62.02
60059;BME280;45932;50.658;3.022;2022-08-19T00:16:04;100878.00;;;23.50;61.76
60059;BME280;45932;50.658;3.022;2022-08-19T00:18:31;100611.63;;;21.84;60.80
60059;BME280;45932;50.658;3.022;2022-08-19T00:20:57;100767.47;;;22.80;61.21
60059;BME280;45932;50.658;3.022;2022-08-19T00:23:23;100545.34;;;21.47;61.23
60059;BME280;45932;50.658;3.022;2022-08-19T00:25:49;100755.03;;;22.58;61.64
60059;BME280;45932;50.658;3.022;2022-08-19T00:28:14;100917.75;;;23.45;60.84
60059;BME280;45932;50.658;3.022;2022-08-19T00:30:40;100715.47;;;22.43;61.59
60059;BME280;45932;50.658;3.022;2022-08-19T00:33:06;100668.91;;;22.23;61.58
60059;BME280;45932;50.658;3.022;2022-08-19T00:35:32;100681.75;;;22.35;61.95
60059;BME280;45932;50.658;3.022;2022-08-19T00:37:58;100809.47;;;23.01;61.73
60059;BME280;45932;50.658;3.022;2022-08-19T00:40:25;100719.28;;;22.37;61.08
60059;BME280;45932;50.658;3.022;2022-08-19T00:42:50;100664.47;;;22.22;61.63
60059;BME280;45932;50.658;3.022;2022-08-19T00:45:22;100794.22;;;22.83;61.01
60059;BME280;45932;50.658;3.022;2022-08-19T00:47:48;100777.78;;;22.70;61.60
60059;BME280;45932;50.658;3.022;2022-08-19T00:50:17;100740.91;;;22.54;61.46
60059;BME280;45932;50.658;3.022;2022-08-19T00:52:46;100676.03;;;22.05;60.85
60059;BME280;45932;50.658;3.022;2022-08-19T00:55:20;100679.44;;;22.09;61.57
60059;BME280;45932;50.658;3.022;2022-08-19T00:57:51;100799.91;;;22.77;61.35
60059;BME280;45932;50.658;3.022;2022-08-19T01:00:20;100859.88;;;23.17;61.37
60059;BME280;45932;50.658;3.022;2022-08-19T01:02:46;100813.81;;;22.85;61.49
60059;BME280;45932;50.658;3.022;2022-08-19T01:05:16;100589.19;;;21.66;62.15
60059;BME280;45932;50.658;3.022;2022-08-19T01:07:44;100757.31;;;22.67;62.48
60059;BME280;45932;50.658;3.022;2022-08-19T01:10:12;100764.44;;;22.68;62.40
60059;BME280;45932;50.658;3.022;2022-08-19T01:12:39;100633.19;;;21.83;61.63
60059;BME280;45932;50.658;3.022;2022-08-19T01:15:07;100779.47;;;22.73;61.94
60059;BME280;45932;50.658;3.022;2022-08-19T01:17:34;100873.66;;;23.28;61.93
60059;BME280;45932;50.658;3.022;2022-08-19T01:20:03;100842.03;;;23.14;62.05
60059;BME280;45932;50.658;3.022;2022-08-19T01:22:36;100883.50;;;23.29;61.57
60059;BME280;45932;50.658;3.022;2022-08-19T01:25:05;100788.41;;;22.54;60.54
60059;BME280;45932;50.658;3.022;2022-08-19T01:27:44;100874.78;;;23.24;62.03
60059;BME280;45932;50.658;3.022;2022-08-19T01:30:13;100718.56;;;21.95;60.88
60059;BME280;45932;50.658;3.022;2022-08-19T01:32:39;100811.81;;;22.71;61.57
60059;BME280;45932;50.658;3.022;2022-08-19T01:35:05;100855.63;;;23.11;61.64
60059;BME280;45932;50.658;3.022;2022-08-19T01:37:48;100711.19;;;22.38;62.08
60059;BME280;45932;50.658;3.022;2022-08-19T01:40:14;100715.22;;;22.28;61.42
60059;BME280;45932;50.658;3.022;2022-08-19T01:42:40;100635.59;;;21.89;62.07
60059;BME280;45932;50.658;3.022;2022-08-19T01:45:06;100765.38;;;22.67;62.16
60059;BME280;45932;50.658;3.022;2022-08-19T01:47:34;100766.78;;;22.57;61.77
60059;BME280;45932;50.658;3.022;2022-08-19T01:50:00;100730.81;;;22.41;61.79
60059;BME280;45932;50.658;3.022;2022-08-19T01:52:25;100671.16;;;21.94;61.42
60059;BME280;45932;50.658;3.022;2022-08-19T01:54:52;100796.28;;;22.78;62.21
60059;BME280;45932;50.658;3.022;2022-08-19T01:57:18;100750.94;;;22.51;61.59
60059;BME280;45932;50.658;3.022;2022-08-19T01:59:44;100703.69;;;22.26;61.97
60059;BME280;45932;50.658;3.022;2022-08-19T02:02:10;100894.56;;;23.23;61.57
60059;BME280;45932;50.658;3.022;2022-08-19T02:04:36;100858.69;;;23.23;62.21
60059;BME280;45932;50.658;3.022;2022-08-19T02:07:03;100742.19;;;22.27;61.35
60059;BME280;45932;50.658;3.022;2022-08-19T02:09:31;100797.00;;;22.62;61.93
60059;BME280;45932;50.658;3.022;2022-08-19T02:11:57;100735.25;;;22.42;62.19
60059;BME280;45932;50.658;3.022;2022-08-19T02:14:22;100812.25;;;22.81;62.68
60059;BME280;45932;50.658;3.022;2022-08-19T02:16:47;100771.84;;;22.63;62.45
60059;BME280;45932;50.658;3.022;2022-08-19T02:19:13;100854.41;;;23.18;62.39
60059;BME280;45932;50.658;3.022;2022-08-19T02:21:38;100853.66;;;23.15;62.24
60059;BME280;45932;50.658;3.022;2022-08-19T02:24:04;100794.56;;;22.75;62.17
60059;BME280;45932;50.658;3.022;2022-08-19T02:26:29;100850.16;;;23.13;62.71
60059;BME280;45932;50.658;3.022;2022-08-19T02:28:55;100869.06;;;23.11;62.39
60059;BME280;45932;50.658;3.022;2022-08-19T02:31:22;100861.00;;;23.11;62.56
60059;BME280;45932;50.658;3.022;2022-08-19T02:33:48;100795.47;;;22.76;62.77
60059;BME280;45932;50.658;3.022;2022-08-19T02:36:15;100728.47;;;22.52;62.86
60059;BME280;45932;50.658;3.022;2022-08-19T02:38:42;100775.56;;;22.61;62.38
60059;BME280;45932;50.658;3.022;2022-08-19T02:41:16;100726.75;;;22.51;62.90
60059;BME280;45932;50.658;3.022;2022-08-19T02:43:42;100717.75;;;22.31;62.42
60059;BME280;45932;50.658;3.022;2022-08-19T02:46:13;100702.22;;;22.19;62.88
60059;BME280;45932;50.658;3.022;2022-08-19T02:48:38;100703.88;;;22.21;62.40
60059;BME280;45932;50.658;3.022;2022-08-19T02:51:04;100717.91;;;22.28;62.50
60059;BME280;45932;50.658;3.022;2022-08-19T02:53:30;100701.94;;;22.25;62.41
60059;BME280;45932;50.658;3.022;2022-08-19T02:55:56;100728.19;;;22.39;62.80
60059;BME280;45932;50.658;3.022;2022-08-19T02:58:22;100563.75;;;21.54;63.18
60059;BME280;45932;50.658;3.022;2022-08-19T03:00:52;100839.25;;;23.16;63.11
60059;BME280;45932;50.658;3.022;2022-08-19T03:03:18;100720.69;;;22.46;62.95
60059;BME280;45932;50.658;3.022;2022-08-19T03:05:44;100705.13;;;22.33;62.78
60059;BME280;45932;50.658;3.022;2022-08-19T03:08:10;100632.53;;;21.78;63.08
60059;BME280;45932;50.658;3.022;2022-08-19T03:10:47;100701.88;;;22.46;63.44
60059;BME280;45932;50.658;3.022;2022-08-19T03:13:17;100693.03;;;22.44;63.08
60059;BME280;45932;50.658;3.022;2022-08-19T03:15:45;100804.94;;;23.21;63.80
60059;BME280;45932;50.658;3.022;2022-08-19T03:18:11;100812.06;;;23.22;63.50
60059;BME280;45932;50.658;3.022;2022-08-19T03:20:45;100680.69;;;22.39;63.54
60059;BME280;45932;50.658;3.022;2022-08-19T03:23:13;100751.91;;;22.86;63.96
60059;BME280;45932;50.658;3.022;2022-08-19T03:25:43;100714.19;;;22.69;63.51
60059;BME280;45932;50.658;3.022;2022-08-19T03:28:13;100688.22;;;22.50;63.94
60059;BME280;45932;50.658;3.022;2022-08-19T03:30:40;100747.38;;;22.87;64.06
60059;BME280;45932;50.658;3.022;2022-08-19T03:33:10;100544.16;;;21.73;63.98
60059;BME280;45932;50.658;3.022;2022-08-19T03:35:37;100672.25;;;22.47;63.72
60059;BME280;45932;50.658;3.022;2022-08-19T03:38:05;100809.28;;;23.24;64.02
60059;BME280;45932;50.658;3.022;2022-08-19T03:40:32;100736.13;;;22.79;64.11
60059;BME280;45932;50.658;3.022;2022-08-19T03:42:57;100670.44;;;22.48;64.03
60059;BME280;45932;50.658;3.022;2022-08-19T03:45:23;100749.94;;;22.90;64.44
60059;BME280;45932;50.658;3.022;2022-08-19T03:47:49;100700.84;;;22.67;63.94
60059;BME280;45932;50.658;3.022;2022-08-19T03:50:15;100661.88;;;22.39;64.13
60059;BME280;45932;50.658;3.022;2022-08-19T03:52:40;100633.59;;;22.31;64.39
60059;BME280;45932;50.658;3.022;2022-08-19T03:55:06;100615.53;;;22.15;64.47
60059;BME280;45932;50.658;3.022;2022-08-19T03:57:33;100655.97;;;22.50;64.82
60059;BME280;45932;50.658;3.022;2022-08-19T03:59:59;100667.78;;;22.65;64.66
60059;BME280;45932;50.658;3.022;2022-08-19T04:02:25;100788.66;;;23.24;64.52
60059;BME280;45932;50.658;3.022;2022-08-19T04:04:53;100780.59;;;23.24;64.64
60059;BME280;45932;50.658;3.022;2022-08-19T04:07:20;100655.25;;;22.47;64.96
60059;BME280;45932;50.658;3.022;2022-08-19T04:09:48;100485.16;;;21.52;64.86
60059;BME280;45932;50.658;3.022;2022-08-19T04:12:14;100635.88;;;22.40;65.23
60059;BME280;45932;50.658;3.022;2022-08-19T04:14:40;100757.31;;;23.23;65.04
60059;BME280;45932;50.658;3.022;2022-08-19T04:17:06;100494.31;;;21.67;64.82
60059;BME280;45932;50.658;3.022;2022-08-19T04:19:34;100614.66;;;22.34;64.77
60059;BME280;45932;50.658;3.022;2022-08-19T04:21:59;100506.28;;;21.79;65.37
60059;BME280;45932;50.658;3.022;2022-08-19T04:24:25;100756.50;;;23.21;65.25
60059;BME280;45932;50.658;3.022;2022-08-19T04:26:51;100496.84;;;21.70;65.11
60059;BME280;45932;50.658;3.022;2022-08-19T04:29:20;100631.06;;;22.47;64.94
60059;BME280;45932;50.658;3.022;2022-08-19T04:31:47;100536.56;;;22.00;65.28
60059;BME280;45932;50.658;3.022;2022-08-19T04:34:15;100613.44;;;22.41;65.41
60059;BME280;45932;50.658;3.022;2022-08-19T04:36:43;100585.75;;;22.20;65.23
60059;BME280;45932;50.658;3.022;2022-08-19T04:39:18;100546.50;;;21.98;65.71
60059;BME280;45932;50.658;3.022;2022-08-19T04:41:44;100482.63;;;21.68;65.42
60059;BME280;45932;50.658;3.022;2022-08-19T04:44:30;100639.75;;;22.52;65.29
60059;BME280;45932;50.658;3.022;2022-08-19T04:46:56;100653.59;;;22.62;65.33
60059;BME280;45932;50.658;3.022;2022-08-19T04:49:23;100541.63;;;22.06;65.39
60059;BME280;45932;50.658;3.022;2022-08-19T04:51:49;100695.47;;;22.85;65.45
60059;BME280;45932;50.658;3.022;2022-08-19T04:54:16;100470.22;;;21.66;65.29
60059;BME280;45932;50.658;3.022;2022-08-19T04:56:42;100635.09;;;22.55;65.23
60059;BME280;45932;50.658;3.022;2022-08-19T04:59:07;100639.94;;;22.66;65.48
60059;BME280;45932;50.658;3.022;2022-08-19T05:01:34;100622.63;;;22.54;65.79
60059;BME280;45932;50.658;3.022;2022-08-19T05:04:03;100488.41;;;21.78;65.67
60059;BME280;45932;50.658;3.022;2022-08-19T05:06:31;100745.09;;;23.33;65.91
60059;BME280;45932;50.658;3.022;2022-08-19T05:09:04;100584.88;;;22.38;65.42
60059;BME280;45932;50.658;3.022;2022-08-19T05:11:33;100668.03;;;22.78;65.84
60059;BME280;45932;50.658;3.022;2022-08-19T05:14:00;100754.94;;;23.34;65.80
60059;BME280;45932;50.658;3.022;2022-08-19T05:16:27;100764.75;;;23.36;65.81
60059;BME280;45932;50.658;3.022;2022-08-19T05:18:53;100746.84;;;23.34;65.74
60059;BME280;45932;50.658;3.022;2022-08-19T05:21:38;100459.31;;;21.69;66.00
60059;BME280;45932;50.658;3.022;2022-08-19T05:24:23;100741.25;;;23.39;65.99
60059;BME280;45932;50.658;3.022;2022-08-19T05:26:50;100696.78;;;23.13;66.05
60059;BME280;45932;50.658;3.022;2022-08-19T05:29:19;100541.69;;;22.24;65.91
60059;BME280;45932;50.658;3.022;2022-08-19T05:31:47;100620.66;;;22.76;66.27
60059;BME280;45932;50.658;3.022;2022-08-19T05:34:15;100625.09;;;22.77;66.10
60059;BME280;45932;50.658;3.022;2022-08-19T05:36:42;100450.91;;;21.77;66.00
60059;BME280;45932;50.658;3.022;2022-08-19T05:39:12;100582.53;;;22.50;66.13
60059;BME280;45932;50.658;3.022;2022-08-19T05:41:48;100750.03;;;23.43;66.29
60059;BME280;45932;50.658;3.022;2022-08-19T05:44:15;100486.94;;;21.90;66.11
60059;BME280;45932;50.658;3.022;2022-08-19T05:46:43;100633.72;;;22.66;66.21
60059;BME280;45932;50.658;3.022;2022-08-19T05:49:13;100504.50;;;21.97;66.33
60059;BME280;45932;50.658;3.022;2022-08-19T05:51:39;100605.94;;;22.48;66.26
60059;BME280;45932;50.658;3.022;2022-08-19T05:54:05;100624.63;;;22.68;66.26
60059;BME280;45932;50.658;3.022;2022-08-19T05:56:32;100671.94;;;22.90;66.16
60059;BME280;45932;50.658;3.022;2022-08-19T05:58:59;100627.13;;;22.71;66.26
60059;BME280;45932;50.658;3.022;2022-08-19T06:01:26;100693.47;;;23.08;66.08
60059;BME280;45932;50.658;3.022;2022-08-19T06:03:52;100683.50;;;23.10;66.11
60059;BME280;45932;50.658;3.022;2022-08-19T06:06:18;100636.19;;;22.88;66.47
60059;BME280;45932;50.658;3.022;2022-08-19T06:08:44;100634.13;;;22.76;66.29
60059;BME280;45932;50.658;3.022;2022-08-19T06:11:37;100548.72;;;22.27;66.32
60059;BME280;45932;50.658;3.022;2022-08-19T06:14:07;100457.56;;;21.87;66.59
60059;BME280;45932;50.658;3.022;2022-08-19T06:16:35;100516.06;;;22.17;66.25
60059;BME280;45932;50.658;3.022;2022-08-19T06:19:03;100536.50;;;22.38;66.61
60059;BME280;45932;50.658;3.022;2022-08-19T06:21:29;100680.81;;;23.10;66.36
60059;BME280;45932;50.658;3.022;2022-08-19T06:23:57;100610.78;;;22.76;66.70
60059;BME280;45932;50.658;3.022;2022-08-19T06:26:23;100686.81;;;23.15;66.61
60059;BME280;45932;50.658;3.022;2022-08-19T06:28:49;100471.97;;;22.03;66.41
60059;BME280;45932;50.658;3.022;2022-08-19T06:31:17;100528.09;;;22.27;66.27
60059;BME280;45932;50.658;3.022;2022-08-19T06:33:44;100572.97;;;22.62;66.55
60059;BME280;45932;50.658;3.022;2022-08-19T06:36:22;100746.38;;;23.61;66.53
60059;BME280;45932;50.658;3.022;2022-08-19T06:38:52;100737.44;;;23.61;66.59
60059;BME280;45932;50.658;3.022;2022-08-19T06:41:17;100627.97;;;22.91;66.56
60059;BME280;45932;50.658;3.022;2022-08-19T06:43:43;100605.47;;;22.92;66.66
60059;BME280;45932;50.658;3.022;2022-08-19T06:46:10;100572.50;;;22.71;66.14
60059;BME280;45932;50.658;3.022;2022-08-19T06:48:37;100604.44;;;22.77;66.41
60059;BME280;45932;50.658;3.022;2022-08-19T06:51:02;100589.97;;;22.80;66.70
60059;BME280;45932;50.658;3.022;2022-08-19T06:53:28;100549.47;;;22.65;66.40
60059;BME280;45932;50.658;3.022;2022-08-19T06:55:54;100559.91;;;22.71;66.29
60059;BME280;45932;50.658;3.022;2022-08-19T06:58:24;100587.13;;;22.83;66.56
60059;BME280;45932;50.658;3.022;2022-08-19T07:00:50;100567.22;;;22.69;66.50
60059;BME280;45932;50.658;3.022;2022-08-19T07:03:16;100457.66;;;22.03;66.44
60059;BME280;45932;50.658;3.022;2022-08-19T07:05:42;100631.44;;;23.11;66.78
60059;BME280;45932;50.658;3.022;2022-08-19T07:08:08;100601.84;;;22.93;66.68
60059;BME280;45932;50.658;3.022;2022-08-19T07:10:34;100677.66;;;23.37;66.52
60059;BME280;45932;50.658;3.022;2022-08-19T07:13:02;100743.03;;;23.74;66.72
60059;BME280;45932;50.658;3.022;2022-08-19T07:15:27;100730.34;;;23.76;66.77
60059;BME280;45932;50.658;3.022;2022-08-19T07:17:53;100603.03;;;22.88;66.46
60059;BME280;45932;50.658;3.022;2022-08-19T07:20:18;100468.16;;;22.25;66.58
60059;BME280;45932;50.658;3.022;2022-08-19T07:22:44;100733.53;;;23.84;66.88
60059;BME280;45932;50.658;3.022;2022-08-19T07:25:10;100397.53;;;21.88;66.94
60059;BME280;45932;50.658;3.022;2022-08-19T07:27:38;100609.63;;;23.17;66.39
60059;BME280;45932;50.658;3.022;2022-08-19T07:30:05;100737.88;;;23.87;66.83
60059;BME280;45932;50.658;3.022;2022-08-19T07:32:30;100654.19;;;23.56;66.82
60059;BME280;45932;50.658;3.022;2022-08-19T07:34:56;100585.44;;;23.15;67.05
60059;BME280;45932;50.658;3.022;2022-08-19T07:37:21;100453.75;;;22.45;66.80
60059;BME280;45932;50.658;3.022;2022-08-19T07:39:47;100720.19;;;23.98;66.49
60059;BME280;45932;50.658;3.022;2022-08-19T07:42:12;100539.50;;;22.85;66.66
60059;BME280;45932;50.658;3.022;2022-08-19T07:44:40;100512.78;;;22.82;66.52
60059;BME280;45932;50.658;3.022;2022-08-19T07:47:05;100569.47;;;23.12;66.54
60059;BME280;45932;50.658;3.022;2022-08-19T07:49:32;100658.25;;;23.47;65.78
60059;BME280;45932;50.658;3.022;2022-08-19T07:52:05;100518.81;;;22.69;66.05
60059;BME280;45932;50.658;3.022;2022-08-19T07:54:33;100633.00;;;23.50;66.63
60059;BME280;45932;50.658;3.022;2022-08-19T07:57:00;100466.31;;;22.45;66.66
60059;BME280;45932;50.658;3.022;2022-08-19T07:59:26;100580.63;;;23.22;66.43
60059;BME280;45932;50.658;3.022;2022-08-19T08:01:51;100582.06;;;23.29;66.60
60059;BME280;45932;50.658;3.022;2022-08-19T08:04:18;100616.50;;;23.56;66.62
60059;BME280;45932;50.658;3.022;2022-08-19T08:07:06;100479.50;;;22.67;65.84
60059;BME280;45932;50.658;3.022;2022-08-19T08:09:51;100622.91;;;23.38;66.08
60059;BME280;45932;50.658;3.022;2022-08-19T08:12:23;100616.41;;;23.24;65.57
60059;BME280;45932;50.658;3.022;2022-08-19T08:14:55;100492.56;;;22.57;65.45
60059;BME280;45932;50.658;3.022;2022-08-19T08:17:23;100669.13;;;23.62;65.39
60059;BME280;45932;50.658;3.022;2022-08-19T08:19:49;100593.75;;;23.28;65.71
60059;BME280;45932;50.658;3.022;2022-08-19T08:22:18;100466.22;;;22.64;65.85
60059;BME280;45932;50.658;3.022;2022-08-19T08:25:22;100601.03;;;23.44;66.06
60059;BME280;45932;50.658;3.022;2022-08-19T08:27:49;100771.47;;;24.30;65.65
60059;BME280;45932;50.658;3.022;2022-08-19T08:30:21;100493.25;;;22.78;66.10
60059;BME280;45932;50.658;3.022;2022-08-19T08:32:47;100709.09;;;24.05;65.45
60059;BME280;45932;50.658;3.022;2022-08-19T08:35:16;100491.28;;;22.82;65.87
60059;BME280;45932;50.658;3.022;2022-08-19T08:37:42;100549.47;;;23.18;66.11
60059;BME280;45932;50.658;3.022;2022-08-19T08:40:39;100614.31;;;23.47;65.64
60059;BME280;45932;50.658;3.022;2022-08-19T08:45:47;100639.50;;;23.79;65.73
60059;BME280;45932;50.658;3.022;2022-08-19T08:48:29;100516.13;;;23.03;65.42
60059;BME280;45932;50.658;3.022;2022-08-19T08:50:58;100485.84;;;22.99;65.06
60059;BME280;45932;50.658;3.022;2022-08-19T08:53:30;100520.84;;;23.15;65.02
60059;BME280;45932;50.658;3.022;2022-08-19T08:55:58;100638.78;;;23.76;64.06
60059;BME280;45932;50.658;3.022;2022-08-19T08:58:40;100705.25;;;24.09;63.87
60059;BME280;45932;50.658;3.022;2022-08-19T09:01:10;100626.59;;;23.69;63.83
60059;BME280;45932;50.658;3.022;2022-08-19T09:03:38;100523.63;;;23.14;64.09
60059;BME280;45932;50.658;3.022;2022-08-19T09:08:59;100690.84;;;24.26;64.55
60059;BME280;45932;50.658;3.022;2022-08-19T09:16:49;100653.81;;;23.97;64.49
60059;BME280;45932;50.658;3.022;2022-08-19T09:19:16;100809.03;;;24.83;63.92
60059;BME280;45932;50.658;3.022;2022-08-19T09:21:43;100558.00;;;23.42;64.09
60059;BME280;45932;50.658;3.022;2022-08-19T09:24:08;100652.28;;;23.92;63.94
60059;BME280;45932;50.658;3.022;2022-08-19T09:26:33;100702.13;;;24.33;64.21
60059;BME280;45932;50.658;3.022;2022-08-19T09:29:00;100629.06;;;23.89;63.63
60059;BME280;45932;50.658;3.022;2022-08-19T09:31:30;100652.06;;;23.96;63.31
60059;BME280;45932;50.658;3.022;2022-08-19T09:33:58;100670.69;;;24.17;63.35
60059;BME280;45932;50.658;3.022;2022-08-19T09:36:26;100759.94;;;24.76;64.00
60059;BME280;45932;50.658;3.022;2022-08-19T09:38:54;100652.91;;;24.29;64.34
60059;BME280;45932;50.658;3.022;2022-08-19T09:41:22;100653.00;;;24.27;63.38
60059;BME280;45932;50.658;3.022;2022-08-19T09:43:55;100656.66;;;24.42;64.00
60059;BME280;45932;50.658;3.022;2022-08-19T09:46:23;100663.03;;;24.41;63.42
60059;BME280;45932;50.658;3.022;2022-08-19T09:48:50;100810.22;;;25.25;63.54
60059;BME280;45932;50.658;3.022;2022-08-19T09:51:22;100732.78;;;24.80;63.02
60059;BME280;45932;50.658;3.022;2022-08-19T09:53:50;100591.34;;;23.89;62.84
60059;BME280;45932;50.658;3.022;2022-08-19T09:56:18;100816.97;;;25.33;63.18
60059;BME280;45932;50.658;3.022;2022-08-19T09:58:44;100643.28;;;24.09;62.75
60059;BME280;45932;50.658;3.022;2022-08-19T10:01:16;100655.22;;;24.21;63.07
60059;BME280;45932;50.658;3.022;2022-08-19T10:03:41;100715.56;;;24.50;63.07
60059;BME280;45932;50.658;3.022;2022-08-19T10:06:07;100601.94;;;23.76;62.36
60059;BME280;45932;50.658;3.022;2022-08-19T10:08:35;100732.63;;;24.67;62.80
60059;BME280;45932;50.658;3.022;2022-08-19T10:11:02;100713.13;;;24.45;62.36
60059;BME280;45932;50.658;3.022;2022-08-19T10:13:30;100747.25;;;24.78;62.87
60059;BME280;45932;50.658;3.022;2022-08-19T10:16:02;100851.84;;;25.37;62.78
60059;BME280;45932;50.658;3.022;2022-08-19T10:18:28;100695.72;;;24.51;62.72
60059;BME280;45932;50.658;3.022;2022-08-19T10:21:06;100841.94;;;25.38;62.96
60059;BME280;45932;50.658;3.022;2022-08-19T10:23:36;100751.22;;;24.87;62.88
60059;BME280;45932;50.658;3.022;2022-08-19T10:26:03;100707.91;;;24.58;62.82
60059;BME280;45932;50.658;3.022;2022-08-19T10:28:30;100802.22;;;25.08;62.72
60059;BME280;45932;50.658;3.022;2022-08-19T10:30:55;100773.25;;;24.96;62.67
60059;BME280;45932;50.658;3.022;2022-08-19T10:33:21;100698.13;;;24.56;62.94
60059;BME280;45932;50.658;3.022;2022-08-19T10:35:46;100560.84;;;23.73;62.82
60059;BME280;45932;50.658;3.022;2022-08-19T10:38:11;100725.44;;;24.50;61.80
60059;BME280;45932;50.658;3.022;2022-08-19T10:40:37;100757.94;;;24.80;62.57
60059;BME280;45932;50.658;3.022;2022-08-19T10:43:02;100750.53;;;24.68;62.18
60059;BME280;45932;50.658;3.022;2022-08-19T10:45:28;100704.78;;;24.50;62.50
60059;BME280;45932;50.658;3.022;2022-08-19T10:47:53;100674.59;;;24.27;62.20
60059;BME280;45932;50.658;3.022;2022-08-19T10:50:19;100840.16;;;25.37;62.31
60059;BME280;45932;50.658;3.022;2022-08-19T10:53:05;100701.81;;;24.55;61.78
60059;BME280;45932;50.658;3.022;2022-08-19T10:55:33;100663.09;;;24.40;61.80
60059;BME280;45932;50.658;3.022;2022-08-19T10:58:19;100875.84;;;25.58;62.08
60059;BME280;45932;50.658;3.022;2022-08-19T11:00:56;100749.06;;;24.94;62.04
60059;BME280;45932;50.658;3.022;2022-08-19T11:03:22;100734.69;;;24.77;62.19
60059;BME280;45932;50.658;3.022;2022-08-19T11:06:03;100725.16;;;24.72;62.17
60059;BME280;45932;50.658;3.022;2022-08-19T11:08:32;100701.91;;;24.69;62.74
60059;BME280;45932;50.658;3.022;2022-08-19T11:11:00;100568.78;;;24.08;63.13
60059;BME280;45932;50.658;3.022;2022-08-19T11:13:31;100716.06;;;24.89;63.34
60059;BME280;45932;50.658;3.022;2022-08-19T11:16:05;100689.97;;;24.89;63.58
60059;BME280;45932;50.658;3.022;2022-08-19T11:18:36;100674.56;;;24.75;64.03
60059;BME280;45932;50.658;3.022;2022-08-19T11:23:48;100678.38;;;24.87;63.92
60059;BME280;45932;50.658;3.022;2022-08-19T11:26:16;100630.81;;;24.54;63.01
60059;BME280;45932;50.658;3.022;2022-08-19T11:28:41;100655.97;;;24.71;63.64
60059;BME280;45932;50.658;3.022;2022-08-19T11:31:18;100577.28;;;24.32;64.19
60059;BME280;45932;50.658;3.022;2022-08-19T11:33:45;100672.56;;;24.79;64.05
60059;BME280;45932;50.658;3.022;2022-08-19T11:36:12;100769.47;;;25.14;62.76
60059;BME280;45932;50.658;3.022;2022-08-19T11:38:40;100731.91;;;24.95;62.54
60059;BME280;45932;50.658;3.022;2022-08-19T11:41:06;100702.22;;;24.79;62.98
60059;BME280;45932;50.658;3.022;2022-08-19T11:43:36;100755.22;;;25.12;62.55
60059;BME280;45932;50.658;3.022;2022-08-19T11:46:06;100736.75;;;25.04;62.78
60059;BME280;45932;50.658;3.022;2022-08-19T11:48:32;100765.72;;;25.17;62.42
60059;BME280;45932;50.658;3.022;2022-08-19T11:50:58;100723.16;;;25.06;62.47
60059;BME280;45932;50.658;3.022;2022-08-19T11:53:23;100734.47;;;25.13;62.50
60059;BME280;45932;50.658;3.022;2022-08-19T11:55:50;100675.00;;;24.84;62.16
60059;BME280;45932;50.658;3.022;2022-08-19T11:58:18;100627.34;;;24.52;62.42
60059;BME280;45932;50.658;3.022;2022-08-19T12:00:44;100718.84;;;24.87;61.30
60059;BME280;45932;50.658;3.022;2022-08-19T12:03:11;100806.00;;;25.36;60.99
60059;BME280;45932;50.658;3.022;2022-08-19T12:05:38;100635.72;;;24.32;61.07
60059;BME280;45932;50.658;3.022;2022-08-19T12:08:05;100714.88;;;24.78;60.74
60059;BME280;45932;50.658;3.022;2022-08-19T12:13:53;100700.38;;;24.96;61.55
60059;BME280;45932;50.658;3.022;2022-08-19T12:16:22;100864.75;;;26.09;62.61
60059;BME280;45932;50.658;3.022;2022-08-19T12:18:49;100761.75;;;25.69;62.35
60059;BME280;45932;50.658;3.022;2022-08-19T12:21:21;100634.78;;;24.79;61.51
60059;BME280;45932;50.658;3.022;2022-08-19T12:23:49;100774.75;;;25.48;61.00
60059;BME280;45932;50.658;3.022;2022-08-19T12:26:16;100782.69;;;25.65;60.59
60059;BME280;45932;50.658;3.022;2022-08-19T12:28:42;100893.75;;;26.36;60.74
60059;BME280;45932;50.658;3.022;2022-08-19T12:31:08;100798.03;;;25.79;60.65
60059;BME280;45932;50.658;3.022;2022-08-19T12:33:37;100666.47;;;24.91;60.42
60059;BME280;45932;50.658;3.022;2022-08-19T12:36:16;100825.25;;;25.76;59.47
60059;BME280;45932;50.658;3.022;2022-08-19T12:38:42;100809.72;;;25.80;60.37
60059;BME280;45932;50.658;3.022;2022-08-19T12:41:11;100794.97;;;25.71;59.99
60059;BME280;45932;50.658;3.022;2022-08-19T12:43:38;100921.22;;;26.59;60.48
60059;BME280;45932;50.658;3.022;2022-08-19T12:46:04;100853.31;;;26.04;59.06
60059;BME280;45932;50.658;3.022;2022-08-19T12:48:31;100840.13;;;26.14;59.61
60059;BME280;45932;50.658;3.022;2022-08-19T12:50:56;100673.19;;;25.15;59.13
60059;BME280;45932;50.658;3.022;2022-08-19T12:53:22;100708.97;;;25.33;58.64
60059;BME280;45932;50.658;3.022;2022-08-19T12:55:48;100702.00;;;25.45;59.17
60059;BME280;45932;50.658;3.022;2022-08-19T12:58:21;100782.63;;;25.96;59.28
60059;BME280;45932;50.658;3.022;2022-08-19T13:00:49;100692.59;;;25.36;58.20
60059;BME280;45932;50.658;3.022;2022-08-19T13:03:23;100818.00;;;26.07;58.23
60059;BME280;45932;50.658;3.022;2022-08-19T13:05:56;100696.88;;;25.40;58.40
60059;BME280;45932;50.658;3.022;2022-08-19T13:08:22;100712.16;;;25.55;58.50
60059;BME280;45932;50.658;3.022;2022-08-19T13:10:47;100737.75;;;25.79;58.21
60059;BME280;45932;50.658;3.022;2022-08-19T13:13:13;100705.19;;;25.66;58.42